Owensboro, Kentucky
Current Conditions -  °F | °C
As of 9:56 AM on Friday 19 Dec 2014 (Local Time) from KOWB Reporting Station
Scattered Clouds Scattered Clouds  
Wind Chill: 25°   Ceiling: Unl
Heat Index: 33°   Visibility: 7mi
Dew Point: 26°   Wind: 9mph
Humidity: 76%   Direction: 60°ENE
Pressure: 30.32"   Gusts: NA
Location:  37.77°N, 87.11°W
Report Text: KOWB 191556Z 06008KT 7SM SCT045 01/M03 A3032 RMK AO2 T00051033 SLP272
Loading
Personal Weather Stations






























Interactive Weather Map New forecast layout! Learn more

10-Day Weather Forecast

Advertisements
Track Severe Weather on mobile